Terminal Aerodrome Forecast
Issued by NWS

Home | Current Version | Previous Version | Text Only | Print | Product List | Glossary On
Versions: 1 2 3 4 5 6 7 8 9 10 11 12 13 14 15 16 17 18 19 20 21 22 23 24 25 26
000
FTUS43 KLOT 230809 AAA
TAFGYY
TAF AMD
KGYY 230809Z 2308/2406 13007KT P6SM BKN100
     FM231500 15012KT P6SM SCT050 OVC080
     FM232100 15013G20KT P6SM VCSH SCT030 OVC060
     FM240000 16013KT P6SM VCSH SCT025 OVC035
     FM240500 19013KT P6SM SCT025 BKN150 WS020/21050KT=

USA.gov is the U.S. government's official web portal to all federal, state and local government web resources and services.